Terminal Aerodrome Forecast
Issued by NWS

Home | Current Version | Previous Version | Text Only | Print | Product List | Glossary On
Versions: 1 2 3 4 5 6 7 8 9 10 11 12 13 14 15 16 17 18 19 20 21 22 23 24 25 26 27 28 29 30
000
FTUS45 KRIW 301700
TAFPNA
TAF
KPNA 301721Z 3018/3118 30005KT P6SM OVC120
     FM301900 VRB05KT P6SM SCT090 BKN150
     FM310100 31005KT P6SM SCT040 BKN070
     FM311100 VRB04KT P6SM VCFG SCT005 SCT070
     FM311600 33010KT P6SM SKC
      AMD LTD TO CLD VIS AND WIND=

USA.gov is the U.S. government's official web portal to all federal, state and local government web resources and services.